sensor_id;sensor_type;location;lat;lon;timestamp;P1;durP1;ratioP1;P2;durP2;ratioP2
18286;SDS011;9269;50.838;12.094;2023-05-10T00:00:06;6.80;;;5.77;;
18286;SDS011;9269;50.838;12.094;2023-05-10T00:02:35;6.27;;;5.57;;
18286;SDS011;9269;50.838;12.094;2023-05-10T00:05:06;6.30;;;5.73;;
18286;SDS011;9269;50.838;12.094;2023-05-10T00:07:36;6.10;;;5.50;;
18286;SDS011;9269;50.838;12.094;2023-05-10T00:10:06;6.37;;;5.30;;
18286;SDS011;9269;50.838;12.094;2023-05-10T00:12:36;6.73;;;5.57;;
18286;SDS011;9269;50.838;12.094;2023-05-10T00:15:06;5.57;;;5.00;;
18286;SDS011;9269;50.838;12.094;2023-05-10T00:17:36;6.03;;;5.10;;
18286;SDS011;9269;50.838;12.094;2023-05-10T00:20:05;6.83;;;5.07;;
18286;SDS011;9269;50.838;12.094;2023-05-10T00:22:35;8.27;;;5.57;;
18286;SDS011;9269;50.838;12.094;2023-05-10T00:25:06;7.80;;;6.10;;
18286;SDS011;9269;50.838;12.094;2023-05-10T00:27:36;7.73;;;5.70;;
18286;SDS011;9269;50.838;12.094;2023-05-10T00:30:05;6.60;;;5.93;;
18286;SDS011;9269;50.838;12.094;2023-05-10T00:32:34;6.47;;;5.80;;
18286;SDS011;9269;50.838;12.094;2023-05-10T00:35:03;6.10;;;5.60;;
18286;SDS011;9269;50.838;12.094;2023-05-10T00:37:32;6.67;;;5.40;;
18286;SDS011;9269;50.838;12.094;2023-05-10T00:40:02;5.80;;;5.30;;
18286;SDS011;9269;50.838;12.094;2023-05-10T00:42:31;5.73;;;5.23;;
18286;SDS011;9269;50.838;12.094;2023-05-10T00:45:00;5.57;;;5.07;;
18286;SDS011;9269;50.838;12.094;2023-05-10T00:47:28;5.50;;;5.10;;
18286;SDS011;9269;50.838;12.094;2023-05-10T00:49:57;5.10;;;4.60;;
18286;SDS011;9269;50.838;12.094;2023-05-10T00:52:27;7.20;;;5.07;;
18286;SDS011;9269;50.838;12.094;2023-05-10T00:54:55;4.47;;;4.07;;
18286;SDS011;9269;50.838;12.094;2023-05-10T00:57:26;4.37;;;3.87;;
18286;SDS011;9269;50.838;12.094;2023-05-10T00:59:56;4.80;;;4.17;;
18286;SDS011;9269;50.838;12.094;2023-05-10T01:02:25;4.60;;;4.20;;
18286;SDS011;9269;50.838;12.094;2023-05-10T01:04:54;4.30;;;3.67;;
18286;SDS011;9269;50.838;12.094;2023-05-10T01:07:22;4.53;;;3.90;;
18286;SDS011;9269;50.838;12.094;2023-05-10T01:09:51;4.43;;;4.07;;
18286;SDS011;9269;50.838;12.094;2023-05-10T01:12:20;5.63;;;4.23;;
18286;SDS011;9269;50.838;12.094;2023-05-10T01:14:50;4.80;;;4.40;;
18286;SDS011;9269;50.838;12.094;2023-05-10T01:17:19;4.37;;;4.07;;
18286;SDS011;9269;50.838;12.094;2023-05-10T01:19:48;4.43;;;4.03;;
18286;SDS011;9269;50.838;12.094;2023-05-10T01:22:25;4.10;;;3.80;;
18286;SDS011;9269;50.838;12.094;2023-05-10T01:25:11;3.93;;;3.63;;
18286;SDS011;9269;50.838;12.094;2023-05-10T01:28:02;5.97;;;4.20;;
18286;SDS011;9269;50.838;12.094;2023-05-10T01:33:54;4.50;;;4.20;;
18286;SDS011;9269;50.838;12.094;2023-05-10T01:36:29;4.37;;;3.93;;
18286;SDS011;9269;50.838;12.094;2023-05-10T01:39:01;5.20;;;4.20;;
18286;SDS011;9269;50.838;12.094;2023-05-10T01:41:39;4.30;;;3.90;;
18286;SDS011;9269;50.838;12.094;2023-05-10T01:44:16;3.70;;;3.40;;
18286;SDS011;9269;50.838;12.094;2023-05-10T01:46:55;5.20;;;4.70;;
18286;SDS011;9269;50.838;12.094;2023-05-10T01:49:30;5.90;;;4.00;;
18286;SDS011;9269;50.838;12.094;2023-05-10T01:52:03;5.10;;;4.00;;
18286;SDS011;9269;50.838;12.094;2023-05-10T01:54:38;4.97;;;3.80;;
18286;SDS011;9269;50.838;12.094;2023-05-10T01:57:11;4.50;;;4.10;;
18286;SDS011;9269;50.838;12.094;2023-05-10T01:59:43;4.17;;;3.70;;
18286;SDS011;9269;50.838;12.094;2023-05-10T02:02:17;5.27;;;4.13;;
18286;SDS011;9269;50.838;12.094;2023-05-10T02:04:49;4.03;;;3.73;;
18286;SDS011;9269;50.838;12.094;2023-05-10T02:07:19;4.20;;;3.83;;
18286;SDS011;9269;50.838;12.094;2023-05-10T02:09:49;4.63;;;4.23;;
18286;SDS011;9269;50.838;12.094;2023-05-10T02:12:18;5.07;;;4.43;;
18286;SDS011;9269;50.838;12.094;2023-05-10T02:14:48;4.60;;;4.17;;
18286;SDS011;9269;50.838;12.094;2023-05-10T02:17:18;4.03;;;3.73;;
18286;SDS011;9269;50.838;12.094;2023-05-10T02:19:49;4.23;;;3.90;;
18286;SDS011;9269;50.838;12.094;2023-05-10T02:22:20;4.80;;;4.07;;
18286;SDS011;9269;50.838;12.094;2023-05-10T02:24:49;4.57;;;4.17;;
18286;SDS011;9269;50.838;12.094;2023-05-10T02:27:18;4.20;;;3.90;;
18286;SDS011;9269;50.838;12.094;2023-05-10T02:29:49;4.10;;;3.80;;
18286;SDS011;9269;50.838;12.094;2023-05-10T02:32:19;4.80;;;4.40;;
18286;SDS011;9269;50.838;12.094;2023-05-10T02:34:50;4.40;;;4.00;;
18286;SDS011;9269;50.838;12.094;2023-05-10T02:37:20;6.73;;;4.47;;
18286;SDS011;9269;50.838;12.094;2023-05-10T02:39:50;4.30;;;3.90;;
18286;SDS011;9269;50.838;12.094;2023-05-10T02:42:23;4.47;;;4.07;;
18286;SDS011;9269;50.838;12.094;2023-05-10T02:44:56;4.27;;;3.83;;
18286;SDS011;9269;50.838;12.094;2023-05-10T02:47:28;5.17;;;4.40;;
18286;SDS011;9269;50.838;12.094;2023-05-10T02:49:59;4.60;;;4.20;;
18286;SDS011;9269;50.838;12.094;2023-05-10T02:52:29;6.13;;;4.47;;
18286;SDS011;9269;50.838;12.094;2023-05-10T02:55:02;5.77;;;4.57;;
18286;SDS011;9269;50.838;12.094;2023-05-10T02:57:34;4.80;;;4.37;;
18286;SDS011;9269;50.838;12.094;2023-05-10T03:00:07;4.50;;;4.10;;
18286;SDS011;9269;50.838;12.094;2023-05-10T03:02:36;7.40;;;4.00;;
18286;SDS011;9269;50.838;12.094;2023-05-10T03:05:06;4.67;;;4.10;;
18286;SDS011;9269;50.838;12.094;2023-05-10T03:07:35;4.37;;;3.83;;
18286;SDS011;9269;50.838;12.094;2023-05-10T03:10:04;4.63;;;4.17;;
18286;SDS011;9269;50.838;12.094;2023-05-10T03:12:40;6.37;;;4.17;;
18286;SDS011;9269;50.838;12.094;2023-05-10T03:15:30;5.30;;;4.80;;
18286;SDS011;9269;50.838;12.094;2023-05-10T03:18:07;5.30;;;4.27;;
18286;SDS011;9269;50.838;12.094;2023-05-10T03:20:41;4.53;;;3.97;;
18286;SDS011;9269;50.838;12.094;2023-05-10T03:23:12;4.43;;;4.07;;
18286;SDS011;9269;50.838;12.094;2023-05-10T03:25:49;4.13;;;3.73;;
18286;SDS011;9269;50.838;12.094;2023-05-10T03:28:20;5.53;;;4.40;;
18286;SDS011;9269;50.838;12.094;2023-05-10T03:30:49;4.87;;;3.97;;
18286;SDS011;9269;50.838;12.094;2023-05-10T03:33:20;5.10;;;4.60;;
18286;SDS011;9269;50.838;12.094;2023-05-10T03:35:50;5.33;;;4.10;;
18286;SDS011;9269;50.838;12.094;2023-05-10T03:38:21;4.40;;;4.00;;
18286;SDS011;9269;50.838;12.094;2023-05-10T03:40:50;6.70;;;4.43;;
18286;SDS011;9269;50.838;12.094;2023-05-10T03:43:19;4.90;;;4.40;;
18286;SDS011;9269;50.838;12.094;2023-05-10T03:45:47;4.50;;;4.10;;
18286;SDS011;9269;50.838;12.094;2023-05-10T03:48:15;4.70;;;4.30;;
18286;SDS011;9269;50.838;12.094;2023-05-10T03:50:43;4.47;;;4.07;;
18286;SDS011;9269;50.838;12.094;2023-05-10T03:53:14;4.67;;;4.20;;
18286;SDS011;9269;50.838;12.094;2023-05-10T03:55:43;4.10;;;3.80;;
18286;SDS011;9269;50.838;12.094;2023-05-10T03:58:11;5.17;;;4.10;;
18286;SDS011;9269;50.838;12.094;2023-05-10T04:00:39;4.33;;;3.97;;
18286;SDS011;9269;50.838;12.094;2023-05-10T04:03:12;4.80;;;4.40;;
18286;SDS011;9269;50.838;12.094;2023-05-10T04:05:41;4.40;;;4.00;;
18286;SDS011;9269;50.838;12.094;2023-05-10T04:08:09;4.57;;;4.13;;
18286;SDS011;9269;50.838;12.094;2023-05-10T04:10:39;4.37;;;3.97;;
18286;SDS011;9269;50.838;12.094;2023-05-10T04:13:07;3.97;;;3.67;;
18286;SDS011;9269;50.838;12.094;2023-05-10T04:15:36;4.50;;;4.10;;
18286;SDS011;9269;50.838;12.094;2023-05-10T04:18:05;4.70;;;4.30;;
18286;SDS011;9269;50.838;12.094;2023-05-10T04:20:34;3.80;;;3.50;;
18286;SDS011;9269;50.838;12.094;2023-05-10T04:23:03;4.63;;;4.23;;
18286;SDS011;9269;50.838;12.094;2023-05-10T04:25:33;5.30;;;4.20;;
18286;SDS011;9269;50.838;12.094;2023-05-10T04:28:03;4.73;;;4.13;;
18286;SDS011;9269;50.838;12.094;2023-05-10T04:30:33;4.50;;;4.10;;
18286;SDS011;9269;50.838;12.094;2023-05-10T04:33:02;5.00;;;4.60;;
18286;SDS011;9269;50.838;12.094;2023-05-10T04:35:30;5.60;;;4.30;;
18286;SDS011;9269;50.838;12.094;2023-05-10T04:37:59;7.27;;;4.63;;
18286;SDS011;9269;50.838;12.094;2023-05-10T04:40:27;5.07;;;4.57;;
18286;SDS011;9269;50.838;12.094;2023-05-10T04:42:56;6.40;;;4.33;;
18286;SDS011;9269;50.838;12.094;2023-05-10T04:45:25;6.13;;;4.40;;
18286;SDS011;9269;50.838;12.094;2023-05-10T04:47:54;5.37;;;4.20;;
18286;SDS011;9269;50.838;12.094;2023-05-10T04:50:23;4.43;;;4.13;;
18286;SDS011;9269;50.838;12.094;2023-05-10T04:52:51;4.27;;;3.93;;
18286;SDS011;9269;50.838;12.094;2023-05-10T04:55:20;4.90;;;4.40;;
18286;SDS011;9269;50.838;12.094;2023-05-10T04:57:49;4.43;;;4.10;;
18286;SDS011;9269;50.838;12.094;2023-05-10T05:00:17;4.00;;;3.70;;
18286;SDS011;9269;50.838;12.094;2023-05-10T05:02:48;5.67;;;3.80;;
18286;SDS011;9269;50.838;12.094;2023-05-10T05:05:17;4.70;;;4.30;;
18286;SDS011;9269;50.838;12.094;2023-05-10T05:07:45;4.63;;;4.13;;
18286;SDS011;9269;50.838;12.094;2023-05-10T05:10:14;4.60;;;4.10;;
18286;SDS011;9269;50.838;12.094;2023-05-10T05:12:44;4.50;;;3.97;;
18286;SDS011;9269;50.838;12.094;2023-05-10T05:15:13;5.83;;;4.57;;
18286;SDS011;9269;50.838;12.094;2023-05-10T05:17:43;6.97;;;4.50;;
18286;SDS011;9269;50.838;12.094;2023-05-10T05:20:13;5.80;;;4.40;;
18286;SDS011;9269;50.838;12.094;2023-05-10T05:22:42;5.40;;;4.47;;
18286;SDS011;9269;50.838;12.094;2023-05-10T05:25:10;4.30;;;3.90;;
18286;SDS011;9269;50.838;12.094;2023-05-10T05:27:39;4.93;;;4.27;;
18286;SDS011;9269;50.838;12.094;2023-05-10T05:30:08;4.67;;;4.10;;
18286;SDS011;9269;50.838;12.094;2023-05-10T05:32:37;5.87;;;4.43;;
18286;SDS011;9269;50.838;12.094;2023-05-10T05:35:06;4.20;;;3.80;;
18286;SDS011;9269;50.838;12.094;2023-05-10T05:37:36;5.07;;;3.87;;
18286;SDS011;9269;50.838;12.094;2023-05-10T05:40:05;4.33;;;4.03;;
18286;SDS011;9269;50.838;12.094;2023-05-10T05:42:36;4.37;;;3.97;;
18286;SDS011;9269;50.838;12.094;2023-05-10T05:45:05;5.37;;;4.20;;
18286;SDS011;9269;50.838;12.094;2023-05-10T05:47:36;4.27;;;3.87;;
18286;SDS011;9269;50.838;12.094;2023-05-10T05:50:04;4.50;;;4.10;;
18286;SDS011;9269;50.838;12.094;2023-05-10T05:52:36;4.40;;;4.10;;
18286;SDS011;9269;50.838;12.094;2023-05-10T05:55:05;4.37;;;3.70;;
18286;SDS011;9269;50.838;12.094;2023-05-10T05:57:34;5.30;;;4.13;;
18286;SDS011;9269;50.838;12.094;2023-05-10T06:00:04;4.53;;;4.13;;
18286;SDS011;9269;50.838;12.094;2023-05-10T06:02:33;4.63;;;4.10;;
18286;SDS011;9269;50.838;12.094;2023-05-10T06:05:03;4.77;;;4.33;;
18286;SDS011;9269;50.838;12.094;2023-05-10T06:07:34;4.73;;;4.33;;
18286;SDS011;9269;50.838;12.094;2023-05-10T06:10:05;4.83;;;4.43;;
18286;SDS011;9269;50.838;12.094;2023-05-10T06:12:35;5.43;;;4.73;;
18286;SDS011;9269;50.838;12.094;2023-05-10T06:15:04;7.33;;;5.30;;
18286;SDS011;9269;50.838;12.094;2023-05-10T06:17:34;6.30;;;5.13;;
18286;SDS011;9269;50.838;12.094;2023-05-10T06:20:03;5.97;;;5.47;;
18286;SDS011;9269;50.838;12.094;2023-05-10T06:22:32;6.17;;;5.57;;
18286;SDS011;9269;50.838;12.094;2023-05-10T06:25:01;5.70;;;5.10;;
18286;SDS011;9269;50.838;12.094;2023-05-10T06:27:32;7.20;;;5.93;;
18286;SDS011;9269;50.838;12.094;2023-05-10T06:30:01;7.13;;;6.43;;
18286;SDS011;9269;50.838;12.094;2023-05-10T06:32:39;8.40;;;6.43;;
18286;SDS011;9269;50.838;12.094;2023-05-10T06:35:09;6.33;;;5.73;;
18286;SDS011;9269;50.838;12.094;2023-05-10T06:37:37;6.70;;;6.00;;
18286;SDS011;9269;50.838;12.094;2023-05-10T06:40:07;8.40;;;5.73;;
18286;SDS011;9269;50.838;12.094;2023-05-10T06:42:39;6.40;;;5.80;;
18286;SDS011;9269;50.838;12.094;2023-05-10T06:45:08;5.60;;;5.10;;
18286;SDS011;9269;50.838;12.094;2023-05-10T06:47:37;6.07;;;5.50;;
18286;SDS011;9269;50.838;12.094;2023-05-10T06:50:06;7.30;;;5.70;;
18286;SDS011;9269;50.838;12.094;2023-05-10T06:52:35;7.43;;;5.97;;
18286;SDS011;9269;50.838;12.094;2023-05-10T06:55:04;7.23;;;5.63;;
18286;SDS011;9269;50.838;12.094;2023-05-10T06:57:33;7.10;;;6.40;;
18286;SDS011;9269;50.838;12.094;2023-05-10T07:00:04;6.60;;;5.87;;
18286;SDS011;9269;50.838;12.094;2023-05-10T07:02:34;7.33;;;6.20;;
18286;SDS011;9269;50.838;12.094;2023-05-10T07:05:03;7.37;;;6.23;;
18286;SDS011;9269;50.838;12.094;2023-05-10T07:07:32;6.80;;;6.10;;
18286;SDS011;9269;50.838;12.094;2023-05-10T07:10:01;6.47;;;5.73;;
18286;SDS011;9269;50.838;12.094;2023-05-10T07:12:31;6.70;;;4.80;;
18286;SDS011;9269;50.838;12.094;2023-05-10T07:15:01;5.37;;;4.87;;
18286;SDS011;9269;50.838;12.094;2023-05-10T07:17:32;5.30;;;4.73;;
18286;SDS011;9269;50.838;12.094;2023-05-10T07:20:01;6.23;;;4.73;;
18286;SDS011;9269;50.838;12.094;2023-05-10T07:22:30;6.47;;;4.60;;
18286;SDS011;9269;50.838;12.094;2023-05-10T07:24:59;6.77;;;6.20;;
18286;SDS011;9269;50.838;12.094;2023-05-10T07:27:28;6.07;;;5.13;;
18286;SDS011;9269;50.838;12.094;2023-05-10T07:29:57;8.10;;;5.23;;
18286;SDS011;9269;50.838;12.094;2023-05-10T07:32:26;6.53;;;5.57;;
18286;SDS011;9269;50.838;12.094;2023-05-10T07:34:56;6.23;;;5.37;;
18286;SDS011;9269;50.838;12.094;2023-05-10T07:37:25;5.40;;;4.90;;
18286;SDS011;9269;50.838;12.094;2023-05-10T07:39:54;6.40;;;5.30;;
18286;SDS011;9269;50.838;12.094;2023-05-10T07:42:24;6.27;;;5.67;;
18286;SDS011;9269;50.838;12.094;2023-05-10T07:44:54;6.97;;;5.13;;
18286;SDS011;9269;50.838;12.094;2023-05-10T07:47:23;5.80;;;5.30;;
18286;SDS011;9269;50.838;12.094;2023-05-10T07:49:51;6.50;;;5.90;;
18286;SDS011;9269;50.838;12.094;2023-05-10T07:52:21;7.23;;;5.87;;
18286;SDS011;9269;50.838;12.094;2023-05-10T07:54:50;6.70;;;5.27;;
18286;SDS011;9269;50.838;12.094;2023-05-10T07:57:18;5.73;;;5.30;;
18286;SDS011;9269;50.838;12.094;2023-05-10T07:59:47;5.57;;;5.07;;
18286;SDS011;9269;50.838;12.094;2023-05-10T08:02:16;6.23;;;5.63;;
18286;SDS011;9269;50.838;12.094;2023-05-10T08:04:44;6.87;;;5.47;;
18286;SDS011;9269;50.838;12.094;2023-05-10T08:07:13;5.70;;;5.20;;
18286;SDS011;9269;50.838;12.094;2023-05-10T08:09:42;6.63;;;5.37;;
18286;SDS011;9269;50.838;12.094;2023-05-10T08:12:11;7.47;;;6.07;;
18286;SDS011;9269;50.838;12.094;2023-05-10T08:14:40;8.10;;;5.40;;
18286;SDS011;9269;50.838;12.094;2023-05-10T08:17:08;6.43;;;5.30;;
18286;SDS011;9269;50.838;12.094;2023-05-10T08:19:39;5.80;;;5.30;;
18286;SDS011;9269;50.838;12.094;2023-05-10T08:22:07;6.80;;;5.73;;
18286;SDS011;9269;50.838;12.094;2023-05-10T08:24:36;6.23;;;5.63;;
18286;SDS011;9269;50.838;12.094;2023-05-10T08:27:07;8.33;;;6.30;;
18286;SDS011;9269;50.838;12.094;2023-05-10T08:29:36;5.80;;;5.23;;
18286;SDS011;9269;50.838;12.094;2023-05-10T08:32:16;6.80;;;5.60;;
18286;SDS011;9269;50.838;12.094;2023-05-10T08:34:45;6.13;;;5.53;;
18286;SDS011;9269;50.838;12.094;2023-05-10T08:37:13;6.20;;;5.63;;
18286;SDS011;9269;50.838;12.094;2023-05-10T08:39:43;6.10;;;5.50;;
18286;SDS011;9269;50.838;12.094;2023-05-10T08:42:16;5.50;;;5.00;;
18286;SDS011;9269;50.838;12.094;2023-05-10T08:44:51;5.87;;;5.37;;
18286;SDS011;9269;50.838;12.094;2023-05-10T08:47:21;6.40;;;5.20;;
18286;SDS011;9269;50.838;12.094;2023-05-10T08:49:50;6.77;;;5.60;;
18286;SDS011;9269;50.838;12.094;2023-05-10T08:52:19;6.53;;;5.83;;
18286;SDS011;9269;50.838;12.094;2023-05-10T08:54:51;6.47;;;5.87;;
18286;SDS011;9269;50.838;12.094;2023-05-10T08:57:21;6.70;;;6.10;;
18286;SDS011;9269;50.838;12.094;2023-05-10T08:59:50;5.70;;;5.20;;
18286;SDS011;9269;50.838;12.094;2023-05-10T09:02:18;6.23;;;5.63;;
18286;SDS011;9269;50.838;12.094;2023-05-10T09:04:47;5.77;;;5.27;;
18286;SDS011;9269;50.838;12.094;2023-05-10T09:07:17;6.20;;;5.70;;
18286;SDS011;9269;50.838;12.094;2023-05-10T09:09:47;5.70;;;5.20;;
18286;SDS011;9269;50.838;12.094;2023-05-10T09:12:16;6.13;;;5.50;;
18286;SDS011;9269;50.838;12.094;2023-05-10T09:14:46;6.07;;;5.50;;
18286;SDS011;9269;50.838;12.094;2023-05-10T09:17:15;6.33;;;5.83;;
18286;SDS011;9269;50.838;12.094;2023-05-10T09:19:44;6.10;;;5.57;;
18286;SDS011;9269;50.838;12.094;2023-05-10T09:22:13;5.63;;;5.20;;
18286;SDS011;9269;50.838;12.094;2023-05-10T09:24:42;6.07;;;5.47;;
18286;SDS011;9269;50.838;12.094;2023-05-10T09:27:12;5.80;;;5.30;;
18286;SDS011;9269;50.838;12.094;2023-05-10T09:29:41;5.63;;;5.13;;
18286;SDS011;9269;50.838;12.094;2023-05-10T09:32:13;6.00;;;5.50;;
18286;SDS011;9269;50.838;12.094;2023-05-10T09:34:42;6.10;;;5.33;;
18286;SDS011;9269;50.838;12.094;2023-05-10T09:37:11;7.10;;;6.27;;
18286;SDS011;9269;50.838;12.094;2023-05-10T09:39:40;6.23;;;5.63;;
18286;SDS011;9269;50.838;12.094;2023-05-10T09:42:09;7.83;;;6.33;;
18286;SDS011;9269;50.838;12.094;2023-05-10T09:44:38;6.07;;;5.57;;
18286;SDS011;9269;50.838;12.094;2023-05-10T09:47:07;6.73;;;6.03;;
18286;SDS011;9269;50.838;12.094;2023-05-10T09:49:37;6.53;;;5.97;;
18286;SDS011;9269;50.838;12.094;2023-05-10T09:52:07;6.73;;;6.10;;
18286;SDS011;9269;50.838;12.094;2023-05-10T09:54:35;6.77;;;5.90;;
18286;SDS011;9269;50.838;12.094;2023-05-10T09:57:04;6.20;;;5.70;;
18286;SDS011;9269;50.838;12.094;2023-05-10T09:59:33;6.90;;;5.90;;
18286;SDS011;9269;50.838;12.094;2023-05-10T10:02:03;6.73;;;5.97;;
18286;SDS011;9269;50.838;12.094;2023-05-10T10:04:32;6.33;;;5.77;;
18286;SDS011;9269;50.838;12.094;2023-05-10T10:07:08;6.20;;;5.57;;
18286;SDS011;9269;50.838;12.094;2023-05-10T10:09:36;6.87;;;6.27;;
18286;SDS011;9269;50.838;12.094;2023-05-10T10:12:06;6.47;;;5.93;;
18286;SDS011;9269;50.838;12.094;2023-05-10T10:14:34;6.30;;;5.80;;
18286;SDS011;9269;50.838;12.094;2023-05-10T10:17:03;7.30;;;6.60;;
18286;SDS011;9269;50.838;12.094;2023-05-10T10:19:35;6.90;;;6.27;;
18286;SDS011;9269;50.838;12.094;2023-05-10T10:22:04;6.37;;;5.77;;
18286;SDS011;9269;50.838;12.094;2023-05-10T10:24:34;6.80;;;6.10;;
18286;SDS011;9269;50.838;12.094;2023-05-10T10:27:04;6.73;;;6.13;;
18286;SDS011;9269;50.838;12.094;2023-05-10T10:29:41;7.13;;;6.53;;
18286;SDS011;9269;50.838;12.094;2023-05-10T10:32:19;7.07;;;6.47;;
18286;SDS011;9269;50.838;12.094;2023-05-10T10:34:52;7.27;;;6.63;;
18286;SDS011;9269;50.838;12.094;2023-05-10T10:37:22;7.30;;;6.70;;
18286;SDS011;9269;50.838;12.094;2023-05-10T10:39:53;6.90;;;6.30;;
18286;SDS011;9269;50.838;12.094;2023-05-10T10:45:16;6.67;;;6.07;;
18286;SDS011;9269;50.838;12.094;2023-05-10T10:47:45;6.30;;;5.80;;
18286;SDS011;9269;50.838;12.094;2023-05-10T10:50:13;6.90;;;6.20;;
18286;SDS011;9269;50.838;12.094;2023-05-10T10:52:43;6.67;;;6.00;;
18286;SDS011;9269;50.838;12.094;2023-05-10T10:55:13;6.70;;;6.10;;
18286;SDS011;9269;50.838;12.094;2023-05-10T10:57:46;6.63;;;6.03;;
18286;SDS011;9269;50.838;12.094;2023-05-10T11:00:20;6.40;;;5.90;;
18286;SDS011;9269;50.838;12.094;2023-05-10T11:02:51;6.57;;;6.07;;
18286;SDS011;9269;50.838;12.094;2023-05-10T11:08:08;6.77;;;6.17;;
18286;SDS011;9269;50.838;12.094;2023-05-10T11:10:49;6.90;;;6.37;;
18286;SDS011;9269;50.838;12.094;2023-05-10T11:13:29;6.07;;;5.47;;
18286;SDS011;9269;50.838;12.094;2023-05-10T11:15:58;6.33;;;5.73;;
18286;SDS011;9269;50.838;12.094;2023-05-10T11:18:37;6.07;;;5.57;;
18286;SDS011;9269;50.838;12.094;2023-05-10T11:21:07;6.27;;;5.67;;
18286;SDS011;9269;50.838;12.094;2023-05-10T11:23:48;5.63;;;5.07;;
18286;SDS011;9269;50.838;12.094;2023-05-10T11:26:19;6.63;;;6.10;;
18286;SDS011;9269;50.838;12.094;2023-05-10T11:28:49;6.93;;;6.27;;
18286;SDS011;9269;50.838;12.094;2023-05-10T11:31:19;7.03;;;6.33;;
18286;SDS011;9269;50.838;12.094;2023-05-10T11:33:49;6.10;;;5.60;;
18286;SDS011;9269;50.838;12.094;2023-05-10T11:36:19;6.27;;;5.67;;
18286;SDS011;9269;50.838;12.094;2023-05-10T11:38:49;6.13;;;5.57;;
18286;SDS011;9269;50.838;12.094;2023-05-10T11:41:19;5.80;;;5.30;;
18286;SDS011;9269;50.838;12.094;2023-05-10T11:43:50;6.40;;;5.80;;
18286;SDS011;9269;50.838;12.094;2023-05-10T11:46:20;6.20;;;5.70;;
18286;SDS011;9269;50.838;12.094;2023-05-10T11:48:50;5.60;;;5.20;;
18286;SDS011;9269;50.838;12.094;2023-05-10T11:51:20;5.97;;;5.47;;
18286;SDS011;9269;50.838;12.094;2023-05-10T11:53:49;5.80;;;5.30;;
18286;SDS011;9269;50.838;12.094;2023-05-10T11:56:19;6.50;;;6.00;;
18286;SDS011;9269;50.838;12.094;2023-05-10T11:58:52;7.10;;;6.50;;
18286;SDS011;9269;50.838;12.094;2023-05-10T12:01:22;5.37;;;4.90;;
18286;SDS011;9269;50.838;12.094;2023-05-10T12:03:51;6.30;;;5.80;;
18286;SDS011;9269;50.838;12.094;2023-05-10T12:06:22;6.37;;;5.87;;
18286;SDS011;9269;50.838;12.094;2023-05-10T12:08:54;6.33;;;5.83;;
18286;SDS011;9269;50.838;12.094;2023-05-10T12:11:25;6.50;;;6.00;;
18286;SDS011;9269;50.838;12.094;2023-05-10T12:13:55;5.70;;;5.30;;
18286;SDS011;9269;50.838;12.094;2023-05-10T12:16:24;5.60;;;5.20;;
18286;SDS011;9269;50.838;12.094;2023-05-10T12:18:58;4.87;;;4.57;;
18286;SDS011;9269;50.838;12.094;2023-05-10T12:21:28;5.13;;;4.73;;
18286;SDS011;9269;50.838;12.094;2023-05-10T12:23:59;5.33;;;4.83;;
18286;SDS011;9269;50.838;12.094;2023-05-10T12:26:30;5.30;;;4.80;;
18286;SDS011;9269;50.838;12.094;2023-05-10T12:29:12;5.13;;;4.83;;
18286;SDS011;9269;50.838;12.094;2023-05-10T12:31:49;5.33;;;4.83;;
18286;SDS011;9269;50.838;12.094;2023-05-10T12:34:30;5.70;;;5.30;;
18286;SDS011;9269;50.838;12.094;2023-05-10T12:37:00;4.90;;;4.50;;
18286;SDS011;9269;50.838;12.094;2023-05-10T12:39:38;4.90;;;4.43;;
18286;SDS011;9269;50.838;12.094;2023-05-10T12:42:09;5.87;;;5.37;;
18286;SDS011;9269;50.838;12.094;2023-05-10T12:44:38;5.43;;;5.03;;
18286;SDS011;9269;50.838;12.094;2023-05-10T12:47:07;4.67;;;4.37;;
18286;SDS011;9269;50.838;12.094;2023-05-10T12:49:36;4.90;;;4.50;;
18286;SDS011;9269;50.838;12.094;2023-05-10T12:52:04;5.03;;;4.63;;
18286;SDS011;9269;50.838;12.094;2023-05-10T12:54:34;5.50;;;5.10;;
18286;SDS011;9269;50.838;12.094;2023-05-10T12:57:02;6.13;;;5.53;;
18286;SDS011;9269;50.838;12.094;2023-05-10T12:59:32;5.13;;;4.63;;
18286;SDS011;9269;50.838;12.094;2023-05-10T13:02:03;5.63;;;5.23;;
18286;SDS011;9269;50.838;12.094;2023-05-10T13:04:32;5.50;;;5.10;;
18286;SDS011;9269;50.838;12.094;2023-05-10T13:07:01;5.17;;;4.83;;
18286;SDS011;9269;50.838;12.094;2023-05-10T13:09:30;4.87;;;4.47;;
18286;SDS011;9269;50.838;12.094;2023-05-10T13:11:58;5.70;;;5.20;;
18286;SDS011;9269;50.838;12.094;2023-05-10T13:14:28;7.37;;;6.33;;
18286;SDS011;9269;50.838;12.094;2023-05-10T13:17:00;5.60;;;4.87;;
18286;SDS011;9269;50.838;12.094;2023-05-10T13:19:28;5.60;;;5.00;;
18286;SDS011;9269;50.838;12.094;2023-05-10T13:21:57;5.63;;;4.90;;
18286;SDS011;9269;50.838;12.094;2023-05-10T13:24:25;5.53;;;4.90;;
18286;SDS011;9269;50.838;12.094;2023-05-10T13:26:54;5.17;;;4.67;;
18286;SDS011;9269;50.838;12.094;2023-05-10T13:29:23;5.00;;;4.60;;
18286;SDS011;9269;50.838;12.094;2023-05-10T13:31:52;4.97;;;4.57;;
18286;SDS011;9269;50.838;12.094;2023-05-10T13:34:22;5.47;;;5.00;;
18286;SDS011;9269;50.838;12.094;2023-05-10T13:36:51;5.30;;;4.90;;
18286;SDS011;9269;50.838;12.094;2023-05-10T13:39:22;4.80;;;4.40;;
18286;SDS011;9269;50.838;12.094;2023-05-10T13:41:51;4.50;;;4.20;;
18286;SDS011;9269;50.838;12.094;2023-05-10T13:44:21;4.83;;;4.47;;
18286;SDS011;9269;50.838;12.094;2023-05-10T13:46:50;4.90;;;4.50;;
18286;SDS011;9269;50.838;12.094;2023-05-10T13:49:18;5.60;;;5.10;;
18286;SDS011;9269;50.838;12.094;2023-05-10T13:51:49;5.73;;;5.20;;
18286;SDS011;9269;50.838;12.094;2023-05-10T13:54:18;5.03;;;4.63;;
18286;SDS011;9269;50.838;12.094;2023-05-10T13:56:50;5.10;;;4.67;;
18286;SDS011;9269;50.838;12.094;2023-05-10T13:59:18;5.37;;;4.97;;
18286;SDS011;9269;50.838;12.094;2023-05-10T14:01:49;5.60;;;5.20;;
18286;SDS011;9269;50.838;12.094;2023-05-10T14:04:29;5.00;;;4.60;;
18286;SDS011;9269;50.838;12.094;2023-05-10T14:07:00;5.30;;;4.90;;
18286;SDS011;9269;50.838;12.094;2023-05-10T14:09:37;5.93;;;5.33;;
18286;SDS011;9269;50.838;12.094;2023-05-10T14:12:07;5.83;;;5.33;;
18286;SDS011;9269;50.838;12.094;2023-05-10T14:14:36;5.80;;;5.30;;
18286;SDS011;9269;50.838;12.094;2023-05-10T14:17:04;6.80;;;6.13;;
18286;SDS011;9269;50.838;12.094;2023-05-10T14:19:34;5.83;;;5.40;;
18286;SDS011;9269;50.838;12.094;2023-05-10T14:22:04;6.23;;;5.73;;
18286;SDS011;9269;50.838;12.094;2023-05-10T14:24:33;6.80;;;6.20;;
18286;SDS011;9269;50.838;12.094;2023-05-10T14:27:01;6.70;;;6.10;;
18286;SDS011;9269;50.838;12.094;2023-05-10T14:29:49;8.40;;;7.60;;
18286;SDS011;9269;50.838;12.094;2023-05-10T14:32:18;8.70;;;7.90;;
18286;SDS011;9269;50.838;12.094;2023-05-10T14:34:47;8.30;;;7.50;;
18286;SDS011;9269;50.838;12.094;2023-05-10T14:37:16;7.20;;;6.50;;
18286;SDS011;9269;50.838;12.094;2023-05-10T14:39:46;7.43;;;6.60;;
18286;SDS011;9269;50.838;12.094;2023-05-10T14:42:14;7.63;;;6.73;;
18286;SDS011;9269;50.838;12.094;2023-05-10T14:44:44;6.60;;;6.10;;
18286;SDS011;9269;50.838;12.094;2023-05-10T14:47:22;7.43;;;6.73;;
18286;SDS011;9269;50.838;12.094;2023-05-10T14:50:11;6.80;;;6.10;;
18286;SDS011;9269;50.838;12.094;2023-05-10T14:53:01;6.43;;;5.93;;
18286;SDS011;9269;50.838;12.094;2023-05-10T14:55:30;6.40;;;5.90;;
18286;SDS011;9269;50.838;12.094;2023-05-10T14:57:59;6.47;;;5.97;;
18286;SDS011;9269;50.838;12.094;2023-05-10T15:00:29;6.27;;;5.77;;
18286;SDS011;9269;50.838;12.094;2023-05-10T15:03:18;6.07;;;5.57;;
18286;SDS011;9269;50.838;12.094;2023-05-10T15:05:47;5.77;;;5.37;;
18286;SDS011;9269;50.838;12.094;2023-05-10T15:08:17;5.90;;;5.30;;
18286;SDS011;9269;50.838;12.094;2023-05-10T15:10:46;5.30;;;4.90;;
18286;SDS011;9269;50.838;12.094;2023-05-10T15:13:14;5.90;;;5.47;;
18286;SDS011;9269;50.838;12.094;2023-05-10T15:15:43;6.77;;;6.20;;